sensor_id;sensor_type;location;lat;lon;timestamp;temperature;humidity
22379;DHT22;11357;49.990;7.370;2024-03-07T00:02:06;8.80;84.40
22379;DHT22;11357;49.990;7.370;2024-03-07T00:04:32;8.80;84.50
22379;DHT22;11357;49.990;7.370;2024-03-07T00:07:29;8.80;84.50
22379;DHT22;11357;49.990;7.370;2024-03-07T00:09:54;8.70;84.70
22379;DHT22;11357;49.990;7.370;2024-03-07T00:12:21;8.70;84.50
22379;DHT22;11357;49.990;7.370;2024-03-07T00:14:48;8.60;84.60
22379;DHT22;11357;49.990;7.370;2024-03-07T00:20:04;8.60;84.80
22379;DHT22;11357;49.990;7.370;2024-03-07T00:22:37;8.60;84.90
22379;DHT22;11357;49.990;7.370;2024-03-07T00:25:04;8.60;84.70
22379;DHT22;11357;49.990;7.370;2024-03-07T00:40:53;8.60;84.50
22379;DHT22;11357;49.990;7.370;2024-03-07T00:43:19;8.60;84.60
22379;DHT22;11357;49.990;7.370;2024-03-07T00:59:10;8.30;84.20
22379;DHT22;11357;49.990;7.370;2024-03-07T01:01:36;8.30;84.00
22379;DHT22;11357;49.990;7.370;2024-03-07T01:04:03;8.20;83.90
22379;DHT22;11357;49.990;7.370;2024-03-07T01:12:08;8.00;84.00
22379;DHT22;11357;49.990;7.370;2024-03-07T01:14:35;8.00;83.80
22379;DHT22;11357;49.990;7.370;2024-03-07T01:22:11;7.60;83.90
22379;DHT22;11357;49.990;7.370;2024-03-07T01:24:37;7.60;83.90
22379;DHT22;11357;49.990;7.370;2024-03-07T01:27:03;7.50;83.90
22379;DHT22;11357;49.990;7.370;2024-03-07T01:29:28;7.40;83.90
22379;DHT22;11357;49.990;7.370;2024-03-07T01:31:54;7.20;83.90
22379;DHT22;11357;49.990;7.370;2024-03-07T01:34:20;7.10;84.20
22379;DHT22;11357;49.990;7.370;2024-03-07T01:36:45;6.90;84.40
22379;DHT22;11357;49.990;7.370;2024-03-07T01:39:11;6.80;84.60
22379;DHT22;11357;49.990;7.370;2024-03-07T01:41:38;6.70;84.80
22379;DHT22;11357;49.990;7.370;2024-03-07T01:44:03;6.60;85.10
22379;DHT22;11357;49.990;7.370;2024-03-07T01:59:26;6.70;85.00
22379;DHT22;11357;49.990;7.370;2024-03-07T02:01:58;6.70;84.90
22379;DHT22;11357;49.990;7.370;2024-03-07T02:04:24;6.70;84.80
22379;DHT22;11357;49.990;7.370;2024-03-07T02:06:50;6.70;84.80
22379;DHT22;11357;49.990;7.370;2024-03-07T02:09:18;6.60;84.70
22379;DHT22;11357;49.990;7.370;2024-03-07T02:11:47;6.60;84.70
22379;DHT22;11357;49.990;7.370;2024-03-07T02:14:14;6.50;84.80
22379;DHT22;11357;49.990;7.370;2024-03-07T02:16:40;6.50;85.10
22379;DHT22;11357;49.990;7.370;2024-03-07T02:19:06;6.40;86.10
22379;DHT22;11357;49.990;7.370;2024-03-07T02:21:32;6.40;85.70
22379;DHT22;11357;49.990;7.370;2024-03-07T02:23:58;6.30;85.90
22379;DHT22;11357;49.990;7.370;2024-03-07T02:26:24;6.30;86.10
22379;DHT22;11357;49.990;7.370;2024-03-07T02:28:49;6.30;86.30
22379;DHT22;11357;49.990;7.370;2024-03-07T02:31:15;6.40;86.70
22379;DHT22;11357;49.990;7.370;2024-03-07T02:33:41;6.40;86.90
22379;DHT22;11357;49.990;7.370;2024-03-07T02:38:59;6.50;87.10
22379;DHT22;11357;49.990;7.370;2024-03-07T02:41:25;6.60;87.50
22379;DHT22;11357;49.990;7.370;2024-03-07T02:43:51;6.70;87.40
22379;DHT22;11357;49.990;7.370;2024-03-07T02:46:17;6.70;87.50
22379;DHT22;11357;49.990;7.370;2024-03-07T02:48:43;6.80;87.60
22379;DHT22;11357;49.990;7.370;2024-03-07T02:51:09;6.80;87.60
22379;DHT22;11357;49.990;7.370;2024-03-07T02:53:35;6.90;88.30
22379;DHT22;11357;49.990;7.370;2024-03-07T03:01:11;6.80;87.20
22379;DHT22;11357;49.990;7.370;2024-03-07T03:03:37;6.80;87.10
22379;DHT22;11357;49.990;7.370;2024-03-07T03:11:31;6.50;87.10
22379;DHT22;11357;49.990;7.370;2024-03-07T03:13:57;6.40;87.40
22379;DHT22;11357;49.990;7.370;2024-03-07T03:19:20;6.30;87.50
22379;DHT22;11357;49.990;7.370;2024-03-07T03:21:48;6.20;87.70
22379;DHT22;11357;49.990;7.370;2024-03-07T03:24:14;6.20;87.70
22379;DHT22;11357;49.990;7.370;2024-03-07T03:29:31;6.10;87.70
22379;DHT22;11357;49.990;7.370;2024-03-07T03:31:57;6.10;87.90
22379;DHT22;11357;49.990;7.370;2024-03-07T03:34:22;6.10;87.80
22379;DHT22;11357;49.990;7.370;2024-03-07T03:36:49;6.10;87.90
22379;DHT22;11357;49.990;7.370;2024-03-07T03:39:14;6.10;87.80
22379;DHT22;11357;49.990;7.370;2024-03-07T03:41:41;6.10;87.80
22379;DHT22;11357;49.990;7.370;2024-03-07T03:44:06;6.10;87.80
22379;DHT22;11357;49.990;7.370;2024-03-07T03:46:32;6.10;87.80
22379;DHT22;11357;49.990;7.370;2024-03-07T03:48:58;6.10;87.70
22379;DHT22;11357;49.990;7.370;2024-03-07T03:51:23;6.10;87.50
22379;DHT22;11357;49.990;7.370;2024-03-07T03:53:50;6.00;87.40
22379;DHT22;11357;49.990;7.370;2024-03-07T04:20:03;6.30;88.70
22379;DHT22;11357;49.990;7.370;2024-03-07T04:22:33;6.30;89.00
22379;DHT22;11357;49.990;7.370;2024-03-07T04:24:59;6.40;89.10
22379;DHT22;11357;49.990;7.370;2024-03-07T04:27:46;6.40;89.20
22379;DHT22;11357;49.990;7.370;2024-03-07T04:30:15;6.30;89.40
22379;DHT22;11357;49.990;7.370;2024-03-07T04:32:42;6.40;89.40
22379;DHT22;11357;49.990;7.370;2024-03-07T04:35:08;6.40;89.60
22379;DHT22;11357;49.990;7.370;2024-03-07T04:37:38;6.40;89.80
22379;DHT22;11357;49.990;7.370;2024-03-07T04:40:06;6.40;89.90
22379;DHT22;11357;49.990;7.370;2024-03-07T04:42:44;6.40;89.80
22379;DHT22;11357;49.990;7.370;2024-03-07T04:45:11;6.40;89.90
22379;DHT22;11357;49.990;7.370;2024-03-07T04:47:41;6.40;90.00
22379;DHT22;11357;49.990;7.370;2024-03-07T04:50:08;6.40;90.00
22379;DHT22;11357;49.990;7.370;2024-03-07T04:52:39;6.40;90.00
22379;DHT22;11357;49.990;7.370;2024-03-07T04:55:08;6.40;90.10
22379;DHT22;11357;49.990;7.370;2024-03-07T05:03:26;6.40;90.30
22379;DHT22;11357;49.990;7.370;2024-03-07T05:08:27;6.40;90.20
22379;DHT22;11357;49.990;7.370;2024-03-07T05:11:01;6.40;90.20
22379;DHT22;11357;49.990;7.370;2024-03-07T05:13:32;6.30;90.30
22379;DHT22;11357;49.990;7.370;2024-03-07T05:16:10;6.30;90.30
22379;DHT22;11357;49.990;7.370;2024-03-07T05:18:46;6.30;90.40
22379;DHT22;11357;49.990;7.370;2024-03-07T05:21:12;6.20;90.40
22379;DHT22;11357;49.990;7.370;2024-03-07T05:24:13;6.20;90.40
22379;DHT22;11357;49.990;7.370;2024-03-07T05:26:40;6.20;90.50
22379;DHT22;11357;49.990;7.370;2024-03-07T05:29:09;6.20;90.50
22379;DHT22;11357;49.990;7.370;2024-03-07T05:31:36;6.10;90.50
22379;DHT22;11357;49.990;7.370;2024-03-07T05:34:05;6.20;90.60
22379;DHT22;11357;49.990;7.370;2024-03-07T06:04:01;6.30;90.40
22379;DHT22;11357;49.990;7.370;2024-03-07T06:20:19;6.30;90.60
22379;DHT22;11357;49.990;7.370;2024-03-07T06:22:51;6.30;90.50
22379;DHT22;11357;49.990;7.370;2024-03-07T06:25:18;6.30;90.60
22379;DHT22;11357;49.990;7.370;2024-03-07T06:28:00;6.30;90.70
22379;DHT22;11357;49.990;7.370;2024-03-07T06:30:34;6.30;90.70
22379;DHT22;11357;49.990;7.370;2024-03-07T06:33:01;6.30;90.70
22379;DHT22;11357;49.990;7.370;2024-03-07T06:46:13;6.50;90.60
22379;DHT22;11357;49.990;7.370;2024-03-07T06:55:21;6.50;90.60
22379;DHT22;11357;49.990;7.370;2024-03-07T07:06:24;6.70;90.70
22379;DHT22;11357;49.990;7.370;2024-03-07T07:08:51;6.70;90.60
22379;DHT22;11357;49.990;7.370;2024-03-07T07:11:17;6.80;90.60
22379;DHT22;11357;49.990;7.370;2024-03-07T07:13:43;6.90;90.60
22379;DHT22;11357;49.990;7.370;2024-03-07T07:24:20;7.30;90.30
22379;DHT22;11357;49.990;7.370;2024-03-07T07:26:50;7.40;90.20
22379;DHT22;11357;49.990;7.370;2024-03-07T07:29:18;7.50;90.10
22379;DHT22;11357;49.990;7.370;2024-03-07T07:31:44;7.60;90.00
22379;DHT22;11357;49.990;7.370;2024-03-07T07:34:11;7.70;90.00
22379;DHT22;11357;49.990;7.370;2024-03-07T08:45:08;10.40;79.90
22379;DHT22;11357;49.990;7.370;2024-03-07T09:05:18;12.70;75.00
22379;DHT22;11357;49.990;7.370;2024-03-07T10:11:14;10.40;72.40
22379;DHT22;11357;49.990;7.370;2024-03-07T10:13:40;10.60;73.00
22379;DHT22;11357;49.990;7.370;2024-03-07T10:16:07;11.00;72.20
22379;DHT22;11357;49.990;7.370;2024-03-07T10:18:41;11.60;71.80
22379;DHT22;11357;49.990;7.370;2024-03-07T10:21:07;12.10;70.00
22379;DHT22;11357;49.990;7.370;2024-03-07T10:23:33;12.40;68.80
22379;DHT22;11357;49.990;7.370;2024-03-07T10:26:26;12.50;68.30
22379;DHT22;11357;49.990;7.370;2024-03-07T10:28:52;12.60;67.80
22379;DHT22;11357;49.990;7.370;2024-03-07T10:31:31;12.90;67.90
22379;DHT22;11357;49.990;7.370;2024-03-07T10:34:01;13.20;67.00
22379;DHT22;11357;49.990;7.370;2024-03-07T11:07:31;13.10;64.30
22379;DHT22;11357;49.990;7.370;2024-03-07T11:09:58;13.00;64.20
22379;DHT22;11357;49.990;7.370;2024-03-07T11:12:25;13.20;64.20
22379;DHT22;11357;49.990;7.370;2024-03-07T11:14:55;13.30;63.90
22379;DHT22;11357;49.990;7.370;2024-03-07T11:17:22;13.30;63.80
22379;DHT22;11357;49.990;7.370;2024-03-07T11:19:48;13.60;64.10
22379;DHT22;11357;49.990;7.370;2024-03-07T11:22:31;13.60;63.10
22379;DHT22;11357;49.990;7.370;2024-03-07T11:25:05;13.50;62.90
22379;DHT22;11357;49.990;7.370;2024-03-07T11:27:54;13.60;62.80
22379;DHT22;11357;49.990;7.370;2024-03-07T11:30:21;13.80;62.80
22379;DHT22;11357;49.990;7.370;2024-03-07T11:32:48;14.10;62.50
22379;DHT22;11357;49.990;7.370;2024-03-07T11:35:31;14.20;62.10
22379;DHT22;11357;49.990;7.370;2024-03-07T11:37:58;14.30;61.70
22379;DHT22;11357;49.990;7.370;2024-03-07T11:42:54;13.60;61.70
22379;DHT22;11357;49.990;7.370;2024-03-07T11:45:22;13.20;62.60
22379;DHT22;11357;49.990;7.370;2024-03-07T11:50:23;12.70;64.10
22379;DHT22;11357;49.990;7.370;2024-03-07T11:52:52;13.00;64.50
22379;DHT22;11357;49.990;7.370;2024-03-07T11:55:18;13.40;63.90
22379;DHT22;11357;49.990;7.370;2024-03-07T11:57:45;13.90;63.10
22379;DHT22;11357;49.990;7.370;2024-03-07T12:00:11;14.00;62.40
22379;DHT22;11357;49.990;7.370;2024-03-07T12:02:39;14.20;61.70
22379;DHT22;11357;49.990;7.370;2024-03-07T12:05:05;14.20;61.90
22379;DHT22;11357;49.990;7.370;2024-03-07T12:07:31;14.30;61.60
22379;DHT22;11357;49.990;7.370;2024-03-07T12:09:59;14.50;61.40
22379;DHT22;11357;49.990;7.370;2024-03-07T12:12:29;14.80;61.20
22379;DHT22;11357;49.990;7.370;2024-03-07T12:14:55;15.10;60.50
22379;DHT22;11357;49.990;7.370;2024-03-07T12:17:22;15.30;59.90
22379;DHT22;11357;49.990;7.370;2024-03-07T12:19:48;15.50;59.80
22379;DHT22;11357;49.990;7.370;2024-03-07T12:22:21;15.80;59.30
22379;DHT22;11357;49.990;7.370;2024-03-07T12:25:00;15.90;59.20
22379;DHT22;11357;49.990;7.370;2024-03-07T12:27:33;16.10;59.10
22379;DHT22;11357;49.990;7.370;2024-03-07T12:29:59;15.90;59.00
22379;DHT22;11357;49.990;7.370;2024-03-07T12:32:32;15.50;59.00
22379;DHT22;11357;49.990;7.370;2024-03-07T12:34:58;15.20;59.20
22379;DHT22;11357;49.990;7.370;2024-03-07T12:37:24;15.30;59.20
22379;DHT22;11357;49.990;7.370;2024-03-07T12:39:52;15.40;59.20
22379;DHT22;11357;49.990;7.370;2024-03-07T12:42:27;15.30;58.70
22379;DHT22;11357;49.990;7.370;2024-03-07T12:44:54;15.40;58.90
22379;DHT22;11357;49.990;7.370;2024-03-07T12:47:20;15.70;58.90
22379;DHT22;11357;49.990;7.370;2024-03-07T12:49:46;15.80;58.10
22379;DHT22;11357;49.990;7.370;2024-03-07T12:52:12;15.90;58.00
22379;DHT22;11357;49.990;7.370;2024-03-07T12:54:41;15.90;57.90
22379;DHT22;11357;49.990;7.370;2024-03-07T12:57:08;16.00;58.00
22379;DHT22;11357;49.990;7.370;2024-03-07T12:59:43;16.10;57.90
22379;DHT22;11357;49.990;7.370;2024-03-07T13:02:10;16.10;57.80
22379;DHT22;11357;49.990;7.370;2024-03-07T13:04:37;16.20;57.50
22379;DHT22;11357;49.990;7.370;2024-03-07T13:07:03;16.30;57.70
22379;DHT22;11357;49.990;7.370;2024-03-07T13:09:36;16.40;57.60
22379;DHT22;11357;49.990;7.370;2024-03-07T13:12:03;16.50;57.20
22379;DHT22;11357;49.990;7.370;2024-03-07T13:14:33;16.50;57.10
22379;DHT22;11357;49.990;7.370;2024-03-07T13:16:59;16.40;56.70
22379;DHT22;11357;49.990;7.370;2024-03-07T13:19:26;15.80;56.70
22379;DHT22;11357;49.990;7.370;2024-03-07T13:21:52;15.20;57.30
22379;DHT22;11357;49.990;7.370;2024-03-07T13:24:19;14.80;58.60
22379;DHT22;11357;49.990;7.370;2024-03-07T13:26:45;14.50;59.10
22379;DHT22;11357;49.990;7.370;2024-03-07T13:29:14;14.10;59.50
22379;DHT22;11357;49.990;7.370;2024-03-07T13:31:40;14.00;60.10
22379;DHT22;11357;49.990;7.370;2024-03-07T13:34:09;13.80;60.60
22379;DHT22;11357;49.990;7.370;2024-03-07T13:36:41;13.60;60.50
22379;DHT22;11357;49.990;7.370;2024-03-07T13:39:08;13.40;61.10
22379;DHT22;11357;49.990;7.370;2024-03-07T13:41:40;13.20;61.10
22379;DHT22;11357;49.990;7.370;2024-03-07T13:44:06;13.00;61.50
22379;DHT22;11357;49.990;7.370;2024-03-07T13:46:32;12.80;61.90
22379;DHT22;11357;49.990;7.370;2024-03-07T13:49:02;12.60;62.40
22379;DHT22;11357;49.990;7.370;2024-03-07T13:51:39;12.40;62.90
22379;DHT22;11357;49.990;7.370;2024-03-07T13:54:19;12.30;63.00
22379;DHT22;11357;49.990;7.370;2024-03-07T13:57:02;12.20;63.60
22379;DHT22;11357;49.990;7.370;2024-03-07T14:16:58;12.10;65.10
22379;DHT22;11357;49.990;7.370;2024-03-07T14:30:50;11.90;65.20
22379;DHT22;11357;49.990;7.370;2024-03-07T14:33:23;11.80;65.60
22379;DHT22;11357;49.990;7.370;2024-03-07T14:36:10;11.80;66.00
22379;DHT22;11357;49.990;7.370;2024-03-07T14:38:45;11.70;66.30
22379;DHT22;11357;49.990;7.370;2024-03-07T14:41:15;11.60;66.30
22379;DHT22;11357;49.990;7.370;2024-03-07T14:43:41;11.60;66.40
22379;DHT22;11357;49.990;7.370;2024-03-07T14:46:08;11.60;66.60
22379;DHT22;11357;49.990;7.370;2024-03-07T14:48:35;11.60;67.00
22379;DHT22;11357;49.990;7.370;2024-03-07T14:51:02;11.60;67.20
22379;DHT22;11357;49.990;7.370;2024-03-07T14:53:28;11.60;67.50
22379;DHT22;11357;49.990;7.370;2024-03-07T14:55:54;11.50;67.50
22379;DHT22;11357;49.990;7.370;2024-03-07T14:58:21;11.50;68.40
22379;DHT22;11357;49.990;7.370;2024-03-07T15:00:47;11.50;67.80
22379;DHT22;11357;49.990;7.370;2024-03-07T15:03:16;11.60;67.90
22379;DHT22;11357;49.990;7.370;2024-03-07T15:05:46;11.80;68.00
22379;DHT22;11357;49.990;7.370;2024-03-07T15:08:14;12.00;68.10
22379;DHT22;11357;49.990;7.370;2024-03-07T15:10:50;12.10;67.90
22379;DHT22;11357;49.990;7.370;2024-03-07T15:13:17;12.10;67.50
22379;DHT22;11357;49.990;7.370;2024-03-07T15:15:43;12.20;67.50
22379;DHT22;11357;49.990;7.370;2024-03-07T15:18:10;12.30;67.50
22379;DHT22;11357;49.990;7.370;2024-03-07T15:20:36;12.20;67.20
22379;DHT22;11357;49.990;7.370;2024-03-07T15:23:02;12.10;67.30
22379;DHT22;11357;49.990;7.370;2024-03-07T15:25:29;12.00;67.60
22379;DHT22;11357;49.990;7.370;2024-03-07T15:27:56;12.00;67.70
22379;DHT22;11357;49.990;7.370;2024-03-07T15:30:23;11.90;67.80
22379;DHT22;11357;49.990;7.370;2024-03-07T15:33:01;11.90;68.20
22379;DHT22;11357;49.990;7.370;2024-03-07T15:35:27;11.90;68.20
22379;DHT22;11357;49.990;7.370;2024-03-07T15:37:53;11.80;68.20
22379;DHT22;11357;49.990;7.370;2024-03-07T15:40:21;11.70;68.40
22379;DHT22;11357;49.990;7.370;2024-03-07T15:42:48;11.70;68.40
22379;DHT22;11357;49.990;7.370;2024-03-07T15:45:20;11.70;68.50
22379;DHT22;11357;49.990;7.370;2024-03-07T15:47:58;11.60;68.40
22379;DHT22;11357;49.990;7.370;2024-03-07T15:50:44;11.60;68.40
22379;DHT22;11357;49.990;7.370;2024-03-07T15:53:09;11.60;67.90
22379;DHT22;11357;49.990;7.370;2024-03-07T15:55:35;11.60;68.10
22379;DHT22;11357;49.990;7.370;2024-03-07T15:58:03;11.60;68.10
22379;DHT22;11357;49.990;7.370;2024-03-07T16:00:30;11.70;68.00
22379;DHT22;11357;49.990;7.370;2024-03-07T16:03:01;11.70;67.90
22379;DHT22;11357;49.990;7.370;2024-03-07T16:05:30;11.80;67.90
22379;DHT22;11357;49.990;7.370;2024-03-07T16:07:57;11.60;68.00
22379;DHT22;11357;49.990;7.370;2024-03-07T16:10:27;11.50;68.30
22379;DHT22;11357;49.990;7.370;2024-03-07T16:12:56;11.40;68.50
22379;DHT22;11357;49.990;7.370;2024-03-07T16:15:23;11.40;68.80
22379;DHT22;11357;49.990;7.370;2024-03-07T16:17:52;11.40;68.80
22379;DHT22;11357;49.990;7.370;2024-03-07T16:20:31;11.30;68.90
22379;DHT22;11357;49.990;7.370;2024-03-07T16:22:57;11.20;69.10
22379;DHT22;11357;49.990;7.370;2024-03-07T16:25:24;11.20;69.20
22379;DHT22;11357;49.990;7.370;2024-03-07T16:27:51;11.10;69.30
22379;DHT22;11357;49.990;7.370;2024-03-07T16:30:24;11.00;69.50
22379;DHT22;11357;49.990;7.370;2024-03-07T16:32:52;11.00;69.70
22379;DHT22;11357;49.990;7.370;2024-03-07T16:35:24;11.00;69.80
22379;DHT22;11357;49.990;7.370;2024-03-07T16:37:51;11.00;69.80
22379;DHT22;11357;49.990;7.370;2024-03-07T16:40:18;10.90;69.90
22379;DHT22;11357;49.990;7.370;2024-03-07T16:42:52;10.80;70.00
22379;DHT22;11357;49.990;7.370;2024-03-07T16:45:25;10.80;70.30
22379;DHT22;11357;49.990;7.370;2024-03-07T16:47:53;10.70;71.20
22379;DHT22;11357;49.990;7.370;2024-03-07T16:50:24;10.60;70.70
22379;DHT22;11357;49.990;7.370;2024-03-07T16:52:53;10.60;70.90
22379;DHT22;11357;49.990;7.370;2024-03-07T16:55:20;10.60;71.00
22379;DHT22;11357;49.990;7.370;2024-03-07T16:57:48;10.60;71.20
22379;DHT22;11357;49.990;7.370;2024-03-07T17:00:19;10.50;71.30
22379;DHT22;11357;49.990;7.370;2024-03-07T17:03:01;10.50;71.40
22379;DHT22;11357;49.990;7.370;2024-03-07T17:05:28;10.50;71.50
22379;DHT22;11357;49.990;7.370;2024-03-07T17:07:55;10.50;71.60
22379;DHT22;11357;49.990;7.370;2024-03-07T17:10:22;10.40;71.60
22379;DHT22;11357;49.990;7.370;2024-03-07T17:12:50;10.40;71.80
22379;DHT22;11357;49.990;7.370;2024-03-07T17:15:18;10.40;71.90
22379;DHT22;11357;49.990;7.370;2024-03-07T17:17:48;10.40;71.90
22379;DHT22;11357;49.990;7.370;2024-03-07T17:20:20;10.30;72.10
22379;DHT22;11357;49.990;7.370;2024-03-07T17:22:46;10.30;72.10
22379;DHT22;11357;49.990;7.370;2024-03-07T17:25:15;10.30;72.10
22379;DHT22;11357;49.990;7.370;2024-03-07T17:27:42;10.30;72.20
22379;DHT22;11357;49.990;7.370;2024-03-07T17:30:13;10.20;72.30
22379;DHT22;11357;49.990;7.370;2024-03-07T17:32:39;10.20;72.50
22379;DHT22;11357;49.990;7.370;2024-03-07T17:35:06;10.20;72.60
22379;DHT22;11357;49.990;7.370;2024-03-07T17:37:40;10.20;72.70
22379;DHT22;11357;49.990;7.370;2024-03-07T17:40:08;10.20;72.80
22379;DHT22;11357;49.990;7.370;2024-03-07T17:47:46;10.20;73.00
22379;DHT22;11357;49.990;7.370;2024-03-07T17:50:16;10.20;72.90
22379;DHT22;11357;49.990;7.370;2024-03-07T17:52:48;10.20;73.70
22379;DHT22;11357;49.990;7.370;2024-03-07T17:55:15;10.10;73.90
22379;DHT22;11357;49.990;7.370;2024-03-07T17:57:43;10.10;73.30
22379;DHT22;11357;49.990;7.370;2024-03-07T18:00:13;10.00;73.50
22379;DHT22;11357;49.990;7.370;2024-03-07T18:02:55;10.00;73.70
22379;DHT22;11357;49.990;7.370;2024-03-07T18:05:21;9.90;73.80
22379;DHT22;11357;49.990;7.370;2024-03-07T18:07:48;9.90;74.00
22379;DHT22;11357;49.990;7.370;2024-03-07T18:10:14;9.90;74.10
22379;DHT22;11357;49.990;7.370;2024-03-07T18:12:51;9.90;74.10
22379;DHT22;11357;49.990;7.370;2024-03-07T18:15:20;9.90;74.30
22379;DHT22;11357;49.990;7.370;2024-03-07T18:17:47;9.90;74.50
22379;DHT22;11357;49.990;7.370;2024-03-07T18:20:17;9.80;74.50
22379;DHT22;11357;49.990;7.370;2024-03-07T18:22:46;9.80;74.60
22379;DHT22;11357;49.990;7.370;2024-03-07T18:25:16;9.80;74.70
22379;DHT22;11357;49.990;7.370;2024-03-07T18:27:50;9.70;74.90
22379;DHT22;11357;49.990;7.370;2024-03-07T18:30:17;9.70;75.10
22379;DHT22;11357;49.990;7.370;2024-03-07T18:32:46;9.70;75.10
22379;DHT22;11357;49.990;7.370;2024-03-07T18:35:13;9.70;75.30
22379;DHT22;11357;49.990;7.370;2024-03-07T18:37:39;9.70;75.40
22379;DHT22;11357;49.990;7.370;2024-03-07T18:40:05;9.70;75.50
22379;DHT22;11357;49.990;7.370;2024-03-07T18:42:38;9.60;75.40
22379;DHT22;11357;49.990;7.370;2024-03-07T18:45:04;9.60;75.50
22379;DHT22;11357;49.990;7.370;2024-03-07T18:47:40;9.60;75.60
22379;DHT22;11357;49.990;7.370;2024-03-07T18:50:12;9.60;75.70
22379;DHT22;11357;49.990;7.370;2024-03-07T18:52:39;9.60;75.70
22379;DHT22;11357;49.990;7.370;2024-03-07T18:55:09;9.50;75.70
22379;DHT22;11357;49.990;7.370;2024-03-07T18:57:58;9.60;75.90
22379;DHT22;11357;49.990;7.370;2024-03-07T19:00:26;9.60;75.80
22379;DHT22;11357;49.990;7.370;2024-03-07T19:03:08;9.60;75.90
22379;DHT22;11357;49.990;7.370;2024-03-07T19:05:36;9.50;76.00
22379;DHT22;11357;49.990;7.370;2024-03-07T19:08:07;9.50;76.20
22379;DHT22;11357;49.990;7.370;2024-03-07T19:10:46;9.50;76.30
22379;DHT22;11357;49.990;7.370;2024-03-07T19:13:13;9.50;76.30
22379;DHT22;11357;49.990;7.370;2024-03-07T19:15:40;9.50;76.20
22379;DHT22;11357;49.990;7.370;2024-03-07T19:18:06;9.50;76.30
22379;DHT22;11357;49.990;7.370;2024-03-07T19:20:37;9.50;76.20
22379;DHT22;11357;49.990;7.370;2024-03-07T19:23:03;9.50;76.20
22379;DHT22;11357;49.990;7.370;2024-03-07T19:25:29;9.50;76.30
22379;DHT22;11357;49.990;7.370;2024-03-07T19:27:57;9.50;76.30
22379;DHT22;11357;49.990;7.370;2024-03-07T19:30:26;9.40;76.20
22379;DHT22;11357;49.990;7.370;2024-03-07T19:32:55;9.40;76.30
22379;DHT22;11357;49.990;7.370;2024-03-07T19:35:22;9.40;76.30
22379;DHT22;11357;49.990;7.370;2024-03-07T19:37:51;9.40;76.30
22379;DHT22;11357;49.990;7.370;2024-03-07T19:40:20;9.40;76.40
22379;DHT22;11357;49.990;7.370;2024-03-07T19:42:47;9.30;76.20
22379;DHT22;11357;49.990;7.370;2024-03-07T19:45:20;9.30;76.30
22379;DHT22;11357;49.990;7.370;2024-03-07T19:47:47;9.30;76.30
22379;DHT22;11357;49.990;7.370;2024-03-07T19:50:13;9.30;76.20
22379;DHT22;11357;49.990;7.370;2024-03-07T19:52:45;9.20;76.20
22379;DHT22;11357;49.990;7.370;2024-03-07T19:55:13;9.20;76.10
22379;DHT22;11357;49.990;7.370;2024-03-07T19:57:39;9.10;76.70
22379;DHT22;11357;49.990;7.370;2024-03-07T20:00:07;9.20;76.00
22379;DHT22;11357;49.990;7.370;2024-03-07T20:02:41;9.10;75.90
22379;DHT22;11357;49.990;7.370;2024-03-07T20:05:08;9.10;75.90
22379;DHT22;11357;49.990;7.370;2024-03-07T20:07:37;9.10;75.90
22379;DHT22;11357;49.990;7.370;2024-03-07T20:10:03;9.10;75.90
22379;DHT22;11357;49.990;7.370;2024-03-07T20:12:36;9.10;75.60
22379;DHT22;11357;49.990;7.370;2024-03-07T20:15:06;9.00;75.60
22379;DHT22;11357;49.990;7.370;2024-03-07T20:17:32;9.10;75.60
22379;DHT22;11357;49.990;7.370;2024-03-07T20:19:58;9.10;75.50
22379;DHT22;11357;49.990;7.370;2024-03-07T20:22:24;9.00;75.40
22379;DHT22;11357;49.990;7.370;2024-03-07T20:24:51;9.00;75.30
22379;DHT22;11357;49.990;7.370;2024-03-07T20:27:20;9.00;75.30
22379;DHT22;11357;49.990;7.370;2024-03-07T20:29:48;9.10;75.30
22379;DHT22;11357;49.990;7.370;2024-03-07T20:32:14;9.10;75.10
22379;DHT22;11357;49.990;7.370;2024-03-07T20:34:39;9.10;75.10
22379;DHT22;11357;49.990;7.370;2024-03-07T20:37:08;9.00;74.90
22379;DHT22;11357;49.990;7.370;2024-03-07T20:39:38;9.00;74.80
22379;DHT22;11357;49.990;7.370;2024-03-07T20:42:04;9.00;74.60
22379;DHT22;11357;49.990;7.370;2024-03-07T20:44:34;8.90;74.50
22379;DHT22;11357;49.990;7.370;2024-03-07T20:47:00;8.90;74.60
22379;DHT22;11357;49.990;7.370;2024-03-07T20:49:25;9.00;74.60
22379;DHT22;11357;49.990;7.370;2024-03-07T20:51:51;9.00;74.50
22379;DHT22;11357;49.990;7.370;2024-03-07T20:54:18;9.00;74.30
22379;DHT22;11357;49.990;7.370;2024-03-07T20:56:46;8.90;74.20
22379;DHT22;11357;49.990;7.370;2024-03-07T20:59:20;8.90;74.30
22379;DHT22;11357;49.990;7.370;2024-03-07T21:01:47;8.80;74.40
22379;DHT22;11357;49.990;7.370;2024-03-07T21:04:16;8.80;74.30
22379;DHT22;11357;49.990;7.370;2024-03-07T21:06:48;8.80;74.40
22379;DHT22;11357;49.990;7.370;2024-03-07T21:09:16;8.80;74.30
22379;DHT22;11357;49.990;7.370;2024-03-07T21:11:41;8.80;74.30
22379;DHT22;11357;49.990;7.370;2024-03-07T21:14:08;8.80;74.30
22379;DHT22;11357;49.990;7.370;2024-03-07T21:16:35;8.80;74.20
22379;DHT22;11357;49.990;7.370;2024-03-07T21:19:01;8.80;74.10
22379;DHT22;11357;49.990;7.370;2024-03-07T21:21:28;8.80;74.10
22379;DHT22;11357;49.990;7.370;2024-03-07T21:23:54;8.80;74.10
22379;DHT22;11357;49.990;7.370;2024-03-07T21:26:20;8.80;73.90
22379;DHT22;11357;49.990;7.370;2024-03-07T21:28:45;8.80;74.00
22379;DHT22;11357;49.990;7.370;2024-03-07T21:31:13;8.80;74.00
22379;DHT22;11357;49.990;7.370;2024-03-07T21:33:40;8.80;74.00
22379;DHT22;11357;49.990;7.370;2024-03-07T21:36:06;8.70;73.80
22379;DHT22;11357;49.990;7.370;2024-03-07T21:38:33;8.70;73.70
22379;DHT22;11357;49.990;7.370;2024-03-07T21:41:06;8.70;73.80
22379;DHT22;11357;49.990;7.370;2024-03-07T21:43:36;8.80;73.80
22379;DHT22;11357;49.990;7.370;2024-03-07T21:46:02;8.80;73.70
22379;DHT22;11357;49.990;7.370;2024-03-07T21:48:30;8.70;73.70
22379;DHT22;11357;49.990;7.370;2024-03-07T21:50:57;8.70;73.70
22379;DHT22;11357;49.990;7.370;2024-03-07T21:53:24;8.70;73.80
22379;DHT22;11357;49.990;7.370;2024-03-07T21:55:56;8.70;73.80
22379;DHT22;11357;49.990;7.370;2024-03-07T21:58:25;8.60;73.70
22379;DHT22;11357;49.990;7.370;2024-03-07T22:00:51;8.60;73.70
22379;DHT22;11357;49.990;7.370;2024-03-07T22:03:20;8.60;73.70
22379;DHT22;11357;49.990;7.370;2024-03-07T22:05:46;8.50;73.70
22379;DHT22;11357;49.990;7.370;2024-03-07T22:08:13;8.50;73.80
22379;DHT22;11357;49.990;7.370;2024-03-07T22:10:38;8.50;73.90
22379;DHT22;11357;49.990;7.370;2024-03-07T22:13:04;8.50;73.90
22379;DHT22;11357;49.990;7.370;2024-03-07T22:15:30;8.50;73.90
22379;DHT22;11357;49.990;7.370;2024-03-07T22:17:56;8.50;73.90
22379;DHT22;11357;49.990;7.370;2024-03-07T22:20:22;8.50;73.90
22379;DHT22;11357;49.990;7.370;2024-03-07T22:22:49;8.50;73.80
22379;DHT22;11357;49.990;7.370;2024-03-07T22:25:15;8.50;73.90
22379;DHT22;11357;49.990;7.370;2024-03-07T22:27:41;8.50;73.90
22379;DHT22;11357;49.990;7.370;2024-03-07T22:30:08;8.50;73.90